Main page
METAR-TAF:

METAR-TAF

Airports :

Huesca–Pirineos Airport

Huesca, Spain

latitude: 42-04-32N, longitude: 0-18-58W, elevation: 539 m

Current weather observation

The report was made 30 minutes ago, at 23:30 UTC
Wind 9 kt from the West
Temperature 5°C
Humidity 100%
Pressure 1007 hPa
Visibility: 0400 m
Overcast at a height of 200 ft
mist, patches of fog

METAR: LEHC 172330Z AUTO 28009KT 1100 0400NW R30L/1900N R12R/0200D BR BCFG OVC002 05/05 Q1007

Time: 01:00 (00:00 UTC)

Forecast

The report was made 10 hours and 0 minutes ago, at 14:00 UTC
Forecast valid from 17 at 15 UTC to 18 at 15 UTC
Wind 9 kt from the West
Visibility 10 km or more
Scattered clouds at a height of 5000 ft
Probability 40% :
Temporary
from 17 at 15 UTC to 18 at 02 UTC
Broken clouds at a height of 4000 ft
rain

TAF: LEHC 171400Z 1715/1815 28009KT 9999 SCT050 TX10/1813Z TN01/1806Z PROB40 TEMPO 1715/1802 RA BKN040

Weather observations and forecasts of more than 4000 airports (METAR and TAF reports).

The available stations are represented by yellow and red dots on the map.

Hover mouse over dot to see the name of the station.

Then click to see weather observations and forecasts.

To change the map : click on the green buttons with a black cross to zoom in, on the green button with a dash to zoom out, or on the green arrows for adjacent maps.


METAR-TAF: